Time;durP1;ratioP1;P1;durP2;ratioP2;P2;SDS_P1;SDS_P2;PMS_P1;PMS_P2;Temp;Humidity;BMP_temperature;BMP_pressure;BME280_temperature;BME280_humidity;BME280_pressure;Samples;Min_cycle;Max_cycle;Signal;HPM_P1;HPM_P2
2023/12/21 00:02:06;;;;;;;2.20;1.00;;;;;;;7.29;nan;99666.16;4982059;28;20207;-76
2023/12/21 00:04:32;;;;;;;3.73;1.00;;;;;;;7.32;nan;99654.72;4983002;28;20966;-75
2023/12/21 00:06:57;;;;;;;1.13;0.93;;;;;;;7.35;nan;99665.00;4981824;28;21146;-76
2023/12/21 00:09:23;;;;;;;0.90;0.70;;;;;;;7.35;nan;99678.06;4982624;28;20215;-76
2023/12/21 00:11:48;;;;;;;0.93;0.80;;;;;;;7.37;nan;99670.13;4982898;28;20203;-75
2023/12/21 00:14:14;;;;;;;0.87;0.70;;;;;;;7.38;nan;99664.84;4986745;28;20354;-77
2023/12/21 00:16:39;;;;;;;0.80;0.80;;;;;;;7.41;nan;99663.84;4985596;28;20303;-76
2023/12/21 00:19:05;;;;;;;2.43;1.20;;;;;;;7.39;nan;99650.84;4988278;28;20281;-74
2023/12/21 00:21:30;;;;;;;3.57;1.43;;;;;;;7.42;nan;99640.25;4982179;28;20199;-76
2023/12/21 00:23:56;;;;;;;2.33;1.00;;;;;;;7.43;nan;99651.56;4984313;28;20234;-76
2023/12/21 00:26:22;;;;;;;2.07;1.20;;;;;;;7.44;nan;99648.84;4985035;28;20252;-76
2023/12/21 00:28:47;;;;;;;0.95;0.70;;;;;;;7.43;nan;99667.25;4981679;28;20195;-75
2023/12/21 00:31:13;;;;;;;1.87;1.30;;;;;;;7.42;nan;99660.31;4986904;28;20198;-76
2023/12/21 00:33:38;;;;;;;1.43;0.80;;;;;;;7.45;nan;99647.09;4987039;28;20203;-75
2023/12/21 00:36:04;;;;;;;1.10;0.87;;;;;;;7.43;nan;99651.56;4987749;28;20211;-75
2023/12/21 00:38:29;;;;;;;2.03;1.23;;;;;;;7.45;nan;99636.63;4984625;28;20211;-74
2023/12/21 00:40:56;;;;;;;1.30;0.70;;;;;;;7.45;nan;99637.50;4982077;28;20561;-75
2023/12/21 00:43:21;;;;;;;1.27;0.93;;;;;;;7.47;nan;99633.00;4982697;28;20265;-76
2023/12/21 00:45:47;;;;;;;1.83;0.83;;;;;;;7.48;nan;99637.34;4985824;28;20925;-77
2023/12/21 00:48:15;;;;;;;1.00;0.90;;;;;;;7.48;nan;99637.34;4986234;28;20194;-76
2023/12/21 00:50:41;;;;;;;1.70;1.10;;;;;;;7.44;nan;99629.72;4984555;28;21297;-79
2023/12/21 00:53:06;;;;;;;1.10;0.90;;;;;;;7.45;nan;99628.78;4983714;28;20286;-78
2023/12/21 00:55:32;;;;;;;1.37;0.80;;;;;;;7.45;nan;99627.03;4982809;28;20496;-79
2023/12/21 00:57:58;;;;;;;1.52;0.77;;;;;;;7.45;nan;99623.56;4983690;28;21436;-80
2023/12/21 01:00:24;;;;;;;1.25;1.00;;;;;;;7.48;nan;99624.28;4984992;28;20203;-79
2023/12/21 01:02:49;;;;;;;0.90;0.70;;;;;;;7.50;nan;99616.34;4982835;28;20199;-81
2023/12/21 01:05:15;;;;;;;2.00;1.17;;;;;;;7.50;nan;99616.34;4980523;28;20242;-78
2023/12/21 01:07:41;;;;;;;0.93;0.80;;;;;;;7.51;nan;99618.03;4980506;28;20992;-78
2023/12/21 01:10:08;;;;;;;1.00;0.80;;;;;;;7.52;nan;99619.72;4982053;28;20215;-77
2023/12/21 01:12:34;;;;;;;1.55;1.08;;;;;;;7.53;nan;99610.94;4984097;28;20691;-79
2023/12/21 01:15:00;;;;;;;1.20;1.10;;;;;;;7.52;nan;99622.34;4986092;28;20207;-80
2023/12/21 01:17:26;;;;;;;1.50;0.80;;;;;;;7.56;nan;99604.72;4979930;28;20218;-76
2023/12/21 01:19:51;;;;;;;2.23;1.53;;;;;;;7.56;nan;99600.38;4982238;28;20211;-79
2023/12/21 01:22:17;;;;;;;1.40;1.00;;;;;;;7.52;nan;99597.03;4978525;28;20277;-79
2023/12/21 01:24:42;;;;;;;1.20;0.80;;;;;;;7.53;nan;99590.03;4983981;28;20859;-77
2023/12/21 01:27:07;;;;;;;1.30;0.80;;;;;;;7.54;nan;99582.13;4984804;28;20207;-78
2023/12/21 01:29:33;;;;;;;0.80;0.80;;;;;;;7.53;nan;99580.44;4984341;28;20301;-78
2023/12/21 01:31:59;;;;;;;1.27;1.00;;;;;;;7.49;nan;99585.91;4967982;28;20199;-78
2023/12/21 01:34:25;;;;;;;1.40;0.80;;;;;;;7.49;nan;99588.53;4981635;28;21143;-82
2023/12/21 01:36:50;;;;;;;0.70;0.70;;;;;;;7.48;nan;99576.34;4984858;28;20970;-80
2023/12/21 01:39:16;;;;;;;1.00;0.80;;;;;;;7.48;nan;99576.34;4990784;28;20234;-76
2023/12/21 01:41:41;;;;;;;1.10;0.90;;;;;;;7.47;nan;99574.69;4988417;28;20226;-82
2023/12/21 01:44:06;;;;;;;0.97;0.70;;;;;;;7.48;nan;99561.53;4991021;28;20203;-78
2023/12/21 01:46:33;;;;;;;0.77;0.73;;;;;;;7.48;nan;99556.31;4968877;28;20191;-81
2023/12/21 01:49:00;;;;;;;1.38;0.73;;;;;;;7.48;nan;99560.69;4984789;28;20643;-82
2023/12/21 01:51:27;;;;;;;0.60;0.60;;;;;;;7.49;nan;99563.22;4971041;28;20218;-80
2023/12/21 01:53:53;;;;;;;1.00;0.70;;;;;;;7.50;nan;99558.84;4967957;28;20895;-82
2023/12/21 01:56:20;;;;;;;1.15;0.77;;;;;;;7.51;nan;99561.38;4968786;28;20222;-76
2023/12/21 01:58:50;;;;;;;1.45;0.70;;;;;;;7.55;nan;99572.50;4968491;28;20202;-75
2023/12/21 02:01:18;;;;;;;0.73;0.60;;;;;;;7.52;nan;99560.44;4971443;28;20261;-77
2023/12/21 02:03:44;;;;;;;1.70;0.90;;;;;;;7.53;nan;99549.09;4970327;28;20204;-77
2023/12/21 02:06:09;;;;;;;0.80;0.60;;;;;;;7.55;nan;99543.75;4968353;28;21201;-78
2023/12/21 02:08:35;;;;;;;0.80;0.70;;;;;;;7.56;nan;99532.41;4968471;28;20485;-77
2023/12/21 02:11:06;;;;;;;1.17;0.93;;;;;;;7.57;nan;99528.84;4972015;28;20207;-78
2023/12/21 02:13:31;;;;;;;0.93;0.60;;;;;;;7.59;nan;99520.91;4971383;28;20195;-77
2023/12/21 02:16:01;;;;;;;0.97;0.70;;;;;;;7.60;nan;99531.31;4972536;28;20208;-76
2023/12/21 02:18:27;;;;;;;0.70;0.70;;;;;;;7.58;nan;99520.06;4972737;28;20211;-76
2023/12/21 02:20:53;;;;;;;1.20;1.20;;;;;;;7.57;nan;99509.72;4971670;28;20208;-77
2023/12/21 02:23:20;;;;;;;0.80;0.70;;;;;;;7.59;nan;99510.47;4967218;28;20200;-76
2023/12/21 02:25:45;;;;;;;1.38;0.70;;;;;;;7.60;nan;99496.47;4971198;28;20442;-76
2023/12/21 02:28:11;;;;;;;0.77;0.60;;;;;;;7.61;nan;99496.38;4967738;28;20226;-77
2023/12/21 02:30:36;;;;;;;1.13;0.60;;;;;;;7.62;nan;99490.25;4971082;28;20258;-77
2023/12/21 02:33:01;;;;;;;1.70;0.70;;;;;;;7.57;nan;99496.66;4970729;28;20200;-76
2023/12/21 02:35:27;;;;;;;0.80;0.60;;;;;;;7.60;nan;99491.25;4970709;28;20294;-77
2023/12/21 02:37:52;;;;;;;0.90;0.70;;;;;;;7.62;nan;99494.63;4972805;28;20627;-77
2023/12/21 02:40:18;;;;;;;2.50;0.70;;;;;;;7.63;nan;99491.91;4968469;28;20211;-77
2023/12/21 02:42:43;;;;;;;2.50;2.23;;;;;;;7.63;nan;99491.91;4969297;28;21248;-77
2023/12/21 02:45:09;;;;;;;4.43;0.70;;;;;;;7.64;nan;99485.78;4968371;28;20878;-77
2023/12/21 02:47:34;;;;;;;1.20;0.57;;;;;;;7.65;nan;99484.84;4971030;28;20191;-77
2023/12/21 02:50:00;;;;;;;0.70;0.70;;;;;;;7.65;nan;99463.94;4977505;28;20227;-76
2023/12/21 02:52:25;;;;;;;0.80;0.70;;;;;;;7.66;nan;99452.53;4986401;28;20207;-78
2023/12/21 02:54:51;;;;;;;0.80;0.60;;;;;;;7.66;nan;99452.53;4987795;28;20290;-79
2023/12/21 02:57:16;;;;;;;0.70;0.63;;;;;;;7.66;nan;99444.69;4988481;28;20209;-77
2023/12/21 02:59:42;;;;;;;0.67;0.60;;;;;;;7.71;nan;99436.63;4987280;28;20684;-77
2023/12/21 03:02:08;;;;;;;1.25;0.60;;;;;;;7.70;nan;99435.78;4985862;28;20851;-77
2023/12/21 03:04:33;;;;;;;0.60;0.50;;;;;;;7.74;nan;99445.13;4986501;28;20218;-77
2023/12/21 03:06:59;;;;;;;0.70;0.60;;;;;;;7.72;nan;99433.94;4985381;28;20253;-76
2023/12/21 03:09:25;;;;;;;2.00;0.70;;;;;;;7.76;nan;99424.97;4971624;28;20202;-77
2023/12/21 03:11:50;;;;;;;0.80;0.60;;;;;;;7.75;nan;99407.63;4981606;28;20207;-77
2023/12/21 03:14:15;;;;;;;0.80;0.70;;;;;;;7.75;nan;99381.47;4985953;28;20210;-76
2023/12/21 03:16:41;;;;;;;0.60;0.53;;;;;;;7.76;nan;99377.91;4984848;28;20230;-77
2023/12/21 03:19:06;;;;;;;0.90;0.70;;;;;;;7.80;nan;99378.56;4985207;28;20210;-76
2023/12/21 03:21:32;;;;;;;1.47;0.70;;;;;;;7.79;nan;99382.13;4985625;28;20191;-77
2023/12/21 03:23:57;;;;;;;1.23;0.60;;;;;;;7.77;nan;99383.97;4985152;28;20289;-77
2023/12/21 03:26:24;;;;;;;0.70;0.60;;;;;;;7.80;nan;99396.88;4967544;28;20332;-77
2023/12/21 03:28:49;;;;;;;1.02;0.60;;;;;;;7.82;nan;99402.88;4978884;28;20200;-76
2023/12/21 03:31:17;;;;;;;3.63;0.60;;;;;;;7.82;nan;99402.88;4983885;28;20237;-77
2023/12/21 03:33:43;;;;;;;0.90;0.70;;;;;;;7.86;nan;99400.94;4984907;28;20210;-77
2023/12/21 03:36:11;;;;;;;1.77;0.90;;;;;;;7.86;nan;99382.66;4985097;28;20203;-76
2023/12/21 03:38:37;;;;;;;1.55;0.80;;;;;;;7.89;nan;99396.38;4985278;28;20446;-77
2023/12/21 03:41:02;;;;;;;1.03;0.50;;;;;;;7.88;nan;99379.00;4984097;28;20465;-76
2023/12/21 03:43:27;;;;;;;1.93;1.00;;;;;;;7.86;nan;99362.56;4980802;28;20218;-76
2023/12/21 03:45:53;;;;;;;0.60;0.60;;;;;;;7.86;nan;99369.56;4986626;28;20199;-79
2023/12/21 03:48:18;;;;;;;0.60;0.50;;;;;;;7.91;nan;99360.53;4985891;28;20275;-76
2023/12/21 03:50:44;;;;;;;0.60;0.60;;;;;;;7.93;nan;99348.19;4982422;28;20231;-76
2023/12/21 03:53:11;;;;;;;4.40;1.00;;;;;;;7.90;nan;99339.69;4988364;28;20187;-77
2023/12/21 03:55:39;;;;;;;0.70;0.65;;;;;;;7.91;nan;99354.44;5002581;23;20218;-91
2023/12/21 03:58:07;;;;;;;0.60;0.50;;;;;;;7.91;nan;99347.47;4976663;28;20649;-89
2023/12/21 04:00:42;;;;;;;1.05;0.60;;;;;;;7.92;nan;99343.91;4996961;28;20611;-89
2023/12/21 04:03:17;;;;;;;0.70;0.55;;;;;;;7.93;nan;99357.81;4990781;28;20213;-89
2023/12/21 04:05:58;;;;;;;;;;;;;;;;;;;;;
2023/12/21 04:08:27;;;;;;;0.85;0.60;;;;;;;7.97;nan;99322.72;4970542;28;20988;-90
2023/12/21 04:11:07;;;;;;;4.30;0.70;;;;;;;7.97;nan;99322.72;4970681;28;20194;-89
2023/12/21 04:13:56;;;;;;;1.23;0.60;;;;;;;7.97;nan;99323.56;4984526;28;20195;-90
2023/12/21 04:16:38;;;;;;;0.80;0.70;;;;;;;8.01;nan;99321.59;4984662;28;20219;-89
2023/12/21 04:19:19;;;;;;;0.65;0.57;;;;;;;7.95;nan;99316.72;4985091;28;20201;-91
2023/12/21 04:21:58;;;;;;;1.13;0.70;;;;;;;8.05;nan;99327.53;4983763;28;20232;-88
2023/12/21 04:24:37;;;;;;;1.35;0.60;;;;;;;8.05;nan;99314.44;4982998;28;20217;-90
2023/12/21 04:27:03;;;;;;;0.70;0.60;;;;;;;8.06;nan;99319.56;4981150;28;20715;-89
2023/12/21 04:29:29;;;;;;;0.68;0.60;;;;;;;8.05;nan;99317.06;4983441;28;20237;-90
2023/12/21 04:31:57;;;;;;;0.87;0.70;;;;;;;8.12;nan;99311.34;4985782;28;20211;-90
2023/12/21 04:34:33;;;;;;;1.00;0.60;;;;;;;8.13;nan;99309.59;4983218;28;20201;-90
2023/12/21 04:37:06;;;;;;;0.68;0.57;;;;;;;8.14;nan;99304.28;4980480;28;20210;-91
2023/12/21 04:39:45;;;;;;;0.82;0.50;;;;;;;8.15;nan;99297.25;4982926;28;20290;-89
2023/12/21 04:42:13;;;;;;;0.60;0.50;;;;;;;8.15;nan;99285.00;4981188;28;20194;-90
2023/12/21 04:44:46;;;;;;;1.10;0.57;;;;;;;8.15;nan;99273.72;4966020;28;20546;-90
2023/12/21 04:47:12;;;;;;;1.15;0.80;;;;;;;8.19;nan;99270.00;4979011;28;20195;-89
2023/12/21 04:49:40;;;;;;;1.02;0.55;;;;;;;8.21;nan;99278.59;4979558;28;20198;-91
2023/12/21 04:52:17;;;;;;;0.60;0.50;;;;;;;8.20;nan;99269.06;4984009;28;20210;-90
2023/12/21 04:54:45;;;;;;;0.60;0.47;;;;;;;8.23;nan;99247.09;4980628;28;20397;-90
2023/12/21 04:57:19;;;;;;;0.60;0.50;;;;;;;8.21;nan;99226.28;4961553;28;20652;-90
2023/12/21 04:59:48;;;;;;;0.60;0.50;;;;;;;8.22;nan;99220.09;4979347;28;20209;-89
2023/12/21 05:02:17;;;;;;;0.68;0.60;;;;;;;8.26;nan;99224.19;4980148;28;20542;-90
2023/12/21 05:04:50;;;;;;;0.60;0.50;;;;;;;8.24;nan;99236.56;4966112;28;20535;-91
2023/12/21 05:07:18;;;;;;;0.68;0.60;;;;;;;8.25;nan;99234.78;4981864;28;20170;-89
2023/12/21 05:09:50;;;;;;;0.68;0.60;;;;;;;8.27;nan;99251.22;4980434;28;20198;-90
2023/12/21 05:12:31;;;;;;;0.93;0.50;;;;;;;8.33;nan;99253.47;4976941;28;20202;-90
2023/12/21 05:14:56;;;;;;;0.60;0.50;;;;;;;8.37;nan;99247.97;4978591;28;20198;-89
2023/12/21 05:17:29;;;;;;;0.85;0.50;;;;;;;8.34;nan;99266.44;4961663;28;20191;-90
2023/12/21 05:19:57;;;;;;;0.60;0.47;;;;;;;8.36;nan;99256.72;4977680;28;20749;-90
2023/12/21 05:23:04;;;;;;;0.57;0.43;;;;;;;8.34;nan;99242.88;4990011;28;20201;-93
2023/12/21 05:26:32;;;;;;;;;;;;;;;;;;;;;
2023/12/21 05:29:24;;;;;;;0.60;0.50;;;;;;;8.31;nan;99230.00;4856008;29;20218;-93
2023/12/21 05:34:51;;;;;;;0.60;0.50;;;;;;;8.40;nan;99244.34;4992591;28;20195;-93
2023/12/21 05:37:22;;;;;;;0.60;0.60;;;;;;;8.46;nan;99241.38;4989903;28;20340;-94
2023/12/21 05:40:07;;;;;;;;;;;;;;;;;;;;;
2023/12/21 05:44:09;;;;;;;;;;;;;;;;;;;;;
2023/12/21 05:46:31;;;;;;;2.80;0.77;;;;;;;8.44;nan;99261.53;4999243;28;20213;-93
2023/12/21 05:49:00;;;;;;;0.60;0.60;;;;;;;8.45;nan;99239.66;4913417;29;20217;-93
2023/12/21 05:51:41;;;;;;;0.63;0.60;;;;;;;8.45;nan;99255.38;4901144;29;20427;-93
2023/12/21 05:54:33;;;;;;;0.65;0.50;;;;;;;8.45;nan;99252.75;4890640;29;20213;-91
2023/12/21 05:57:25;;;;;;;0.80;0.60;;;;;;;8.46;nan;99256.22;4877714;29;20588;-94
2023/12/21 06:00:51;;;;;;;1.70;0.60;;;;;;;8.46;nan;99249.22;4897567;29;20202;-93
2023/12/21 06:03:49;;;;;;;;;;;;;;;;;;;;;
2023/12/21 06:06:23;;;;;;;0.80;0.60;;;;;;;8.46;nan;99225.66;4894320;28;20814;-91
2023/12/21 06:08:57;;;;;;;0.70;0.60;;;;;;;8.48;nan;99215.94;4915530;28;21305;-94
2023/12/21 06:11:40;;;;;;;0.73;0.60;;;;;;;8.48;nan;99218.56;4933833;28;20196;-93
2023/12/21 06:14:46;;;;;;;0.80;0.55;;;;;;;8.52;nan;99240.97;4934527;28;20221;-93
2023/12/21 06:18:09;;;;;;;;;;;;;;;;;;;;;
2023/12/21 06:20:35;;;;;;;0.80;0.50;;;;;;;8.54;nan;99222.56;4985227;28;20303;-92
2023/12/21 06:23:21;;;;;;;;;;;;;;;;;;;;;
2023/12/21 06:26:18;;;;;;;0.77;0.60;;;;;;;8.49;nan;99212.38;4987213;28;20213;-92
2023/12/21 06:28:57;;;;;;;1.33;0.60;;;;;;;8.54;nan;99189.38;4996073;28;20905;-92
2023/12/21 06:31:36;;;;;;;0.90;0.70;;;;;;;8.55;nan;99190.22;4990938;28;20222;-94
2023/12/21 06:34:13;;;;;;;1.02;0.80;;;;;;;8.55;nan;99192.84;4991247;28;20191;-92
2023/12/21 06:36:58;;;;;;;;;;;;;;;;;;;;;
2023/12/21 06:39:55;;;;;;;1.00;0.55;;;;;;;8.52;nan;99159.00;4996869;28;20306;-93
2023/12/21 06:42:27;;;;;;;0.60;0.57;;;;;;;8.53;nan;99174.63;4994689;28;20630;-92
2023/12/21 06:44:52;;;;;;;0.70;0.60;;;;;;;8.57;nan;99170.88;4996805;28;20256;-92
2023/12/21 06:47:18;;;;;;;0.70;0.50;;;;;;;8.57;nan;99164.78;4995327;28;20198;-92
2023/12/21 06:50:22;;;;;;;;;;;;;;;;;;;;;
2023/12/21 06:56:24;;;;;;;0.80;0.80;;;;;;;8.59;nan;99153.28;4938344;28;20230;-92
2023/12/21 06:59:02;;;;;;;0.60;0.60;;;;;;;8.61;nan;99151.41;5007375;28;20733;-91
2023/12/21 07:01:31;;;;;;;0.70;0.50;;;;;;;8.60;nan;99154.97;5003296;28;20209;-91
2023/12/21 07:04:29;;;;;;;1.80;1.25;;;;;;;8.63;nan;99148.69;4996964;28;20206;-91
2023/12/21 07:06:58;;;;;;;0.90;0.73;;;;;;;8.64;nan;99145.13;4981954;28;20202;-91
2023/12/21 07:09:23;;;;;;;1.15;0.90;;;;;;;8.64;nan;99145.13;4976701;28;20185;-92
2023/12/21 07:12:09;;;;;;;2.28;1.42;;;;;;;8.69;nan;99142.22;4969718;28;20272;-92
2023/12/21 07:14:44;;;;;;;1.58;1.00;;;;;;;8.68;nan;99141.38;4988471;28;20222;-92
2023/12/21 07:17:12;;;;;;;1.20;0.80;;;;;;;8.70;nan;99157.00;4988302;28;20355;-91
2023/12/21 07:19:53;;;;;;;1.57;1.10;;;;;;;8.73;nan;99168.13;4988638;28;21039;-92
2023/12/21 07:22:38;;;;;;;2.72;1.02;;;;;;;8.77;nan;99147.81;4986580;28;20229;-92
2023/12/21 07:25:08;;;;;;;0.90;0.80;;;;;;;8.73;nan;99165.50;4985594;28;20599;-91
2023/12/21 07:27:36;;;;;;;2.63;1.10;;;;;;;8.79;nan;99164.28;4985128;28;20195;-92
2023/12/21 07:30:42;;;;;;;1.42;1.00;;;;;;;8.73;nan;99155.03;4988570;28;20195;-92
2023/12/21 07:33:26;;;;;;;1.15;1.05;;;;;;;8.74;nan;99153.25;4984190;28;20673;-92
2023/12/21 07:35:56;;;;;;;1.50;1.10;;;;;;;8.78;nan;99157.38;4984872;28;20648;-91
2023/12/21 07:38:21;;;;;;;2.28;1.20;;;;;;;8.85;nan;99150.78;4983901;28;20191;-92
2023/12/21 07:40:51;;;;;;;8.95;3.53;;;;;;;8.88;nan;99149.75;4985847;28;20199;-89
2023/12/21 07:43:23;;;;;;;0.70;0.60;;;;;;;8.94;nan;99138.88;4986503;28;20225;-91
2023/12/21 07:45:48;;;;;;;0.80;0.80;;;;;;;8.94;nan;99142.34;4989397;28;20547;-90
2023/12/21 07:48:16;;;;;;;1.50;1.00;;;;;;;8.94;nan;99120.53;4986649;28;20799;-91
2023/12/21 07:50:44;;;;;;;4.00;1.53;;;;;;;8.93;nan;99111.84;4970695;28;20198;-92
2023/12/21 07:53:15;;;;;;;0.70;0.60;;;;;;;8.97;nan;99105.47;4996603;28;20206;-91
2023/12/21 07:56:09;;;;;;;;;;;;;;;;;;;;;
2023/12/21 07:59:30;;;;;;;0.90;0.60;;;;;;;8.99;nan;99087.91;4992606;28;20733;-92
2023/12/21 08:02:05;;;;;;;2.65;0.95;;;;;;;9.03;nan;99072.81;4992571;28;20254;-90
2023/12/21 08:05:06;;;;;;;2.88;1.40;;;;;;;9.03;nan;99083.28;4991177;28;20237;-90
2023/12/21 08:07:57;;;;;;;1.25;1.00;;;;;;;9.12;nan;99108.03;4985898;28;20667;-92
2023/12/21 08:11:09;;;;;;;1.30;1.15;;;;;;;9.08;nan;99096.91;4988286;28;20190;-94
2023/12/21 08:13:57;;;;;;;2.47;1.50;;;;;;;9.12;nan;99097.56;4974349;28;20761;-91
2023/12/21 08:17:17;;;;;;;2.00;1.40;;;;;;;9.13;nan;99104.47;4997215;28;20214;-93
2023/12/21 08:20:17;;;;;;;2.97;0.80;;;;;;;9.12;nan;99102.78;4989557;28;20202;-92
2023/12/21 08:23:42;;;;;;;2.95;1.92;;;;;;;9.17;nan;99103.34;4982126;28;20568;-92
2023/12/21 08:27:16;;;;;;;;;;;;;;;;;;;;;
2023/12/21 08:34:40;;;;;;;3.00;1.15;;;;;;;9.26;nan;99094.84;4867632;29;20218;-92
2023/12/21 08:38:32;;;;;;;;;;;;;;;;;;;;;
2023/12/21 08:45:30;;;;;;;;;;;;;;;;;;;;;
2023/12/21 08:52:41;;;;;;;0.60;0.50;;;;;;;9.35;nan;99075.91;4845635;29;20715;-92
2023/12/21 08:56:20;;;;;;;;;;;;;;;;;;;;;
2023/12/21 09:08:03;;;;;;;;;;;;;;;;;;;;;
2023/12/21 09:11:07;;;;;;;2.00;1.50;;;;;;;9.36;nan;99090.69;4880430;29;21515;-94
2023/12/21 09:14:39;;;;;;;;;;;;;;;;;;;;;
2023/12/21 09:17:36;;;;;;;3.10;1.42;;;;;;;9.41;nan;99101.69;4882050;29;20685;-94
2023/12/21 09:20:58;;;;;;;;;;;;;;;;;;;;;
2023/12/21 09:24:08;;;;;;;2.28;1.17;;;;;;;9.49;nan;99081.06;4904242;29;20328;-94
2023/12/21 09:27:21;;;;;;;0.98;0.70;;;;;;;9.50;nan;99074.03;4910920;29;20946;-93
2023/12/21 09:30:00;;;;;;;2.67;1.77;;;;;;;9.55;nan;99063.22;4894775;29;20214;-93
2023/12/21 09:33:01;;;;;;;1.95;1.00;;;;;;;9.55;nan;99071.09;4899801;29;20300;-94
2023/12/21 09:40:47;;;;;;;;;;;;;;;;;;;;;
2023/12/21 09:44:19;;;;;;;;;;;;;;;;;;;;;
2023/12/21 09:51:02;;;;;;;1.65;0.60;;;;;;;9.66;nan;99048.44;4821114;29;20209;-93
2023/12/21 09:54:49;;;;;;;;;;;;;;;;;;;;;
2023/12/21 10:04:41;;;;;;;;;;;;;;;;;;;;;
2023/12/21 10:08:28;;;;;;;;;;;;;;;;;;;;;
2023/12/21 10:14:48;;;;;;;1.38;0.80;;;;;;;9.72;nan;98992.09;4791797;29;20210;-94
2023/12/21 10:22:22;;;;;;;;;;;;;;;;;;;;;
2023/12/21 10:29:04;;;;;;;1.40;1.02;;;;;;;9.79;nan;98997.75;4729730;30;20341;-93
2023/12/21 10:31:33;;;;;;;1.17;0.80;;;;;;;9.82;nan;98976.56;4726508;30;20785;-93
2023/12/21 10:34:40;;;;;;;0.90;0.70;;;;;;;9.85;nan;98964.06;4720144;30;20482;-94
2023/12/21 10:37:56;;;;;;;3.03;1.48;;;;;;;9.84;nan;98964.19;4805820;28;20226;-93
2023/12/21 10:41:28;;;;;;;3.80;1.75;;;;;;;9.85;nan;98934.38;4900151;29;20210;-92
2023/12/21 10:49:04;;;;;;;;;;;;;;;;;;;;;
2023/12/21 10:59:01;;;;;;;1.10;0.90;;;;;;;9.90;nan;98885.03;4885401;23;20316;-79
2023/12/21 11:01:29;;;;;;;2.05;1.30;;;;;;;9.89;nan;98860.59;5010659;28;20674;-79
2023/12/21 11:03:57;;;;;;;1.65;1.20;;;;;;;9.93;nan;98863.84;5007468;28;20702;-79
2023/12/21 11:06:24;;;;;;;2.20;2.10;;;;;;;9.95;nan;98854.91;5003784;28;21192;-80
2023/12/21 11:08:49;;;;;;;1.52;1.10;;;;;;;9.96;nan;98838.22;5000395;28;20205;-80
2023/12/21 11:11:22;;;;;;;5.17;2.30;;;;;;;10.00;nan;98822.25;5001458;28;20191;-79
2023/12/21 11:13:52;;;;;;;2.90;1.02;;;;;;;9.97;nan;98825.94;4999829;28;20202;-79
2023/12/21 11:16:22;;;;;;;1.40;0.80;;;;;;;10.04;nan;98828.94;4996070;28;20274;-80
2023/12/21 11:18:49;;;;;;;1.38;1.05;;;;;;;10.07;nan;98819.06;4993807;28;20606;-79
2023/12/21 11:21:18;;;;;;;2.67;1.40;;;;;;;10.06;nan;98812.13;4998218;28;20204;-79
2023/12/21 11:23:44;;;;;;;2.70;2.20;;;;;;;10.14;nan;98808.94;5002129;28;20294;-78
2023/12/21 11:26:10;;;;;;;1.90;1.20;;;;;;;10.08;nan;98814.66;4981931;28;20231;-78
2023/12/21 11:28:37;;;;;;;1.93;1.07;;;;;;;10.05;nan;98825.38;5002530;28;20217;-79
2023/12/21 11:31:15;;;;;;;0.80;0.70;;;;;;;10.09;nan;98816.31;4999719;28;20744;-78
2023/12/21 11:33:42;;;;;;;0.90;0.80;;;;;;;10.08;nan;98833.03;5003008;28;20214;-77
2023/12/21 11:36:08;;;;;;;1.00;0.77;;;;;;;10.07;nan;98854.94;5000699;28;20211;-77
2023/12/21 11:39:07;;;;;;;0.90;0.90;;;;;;;10.03;nan;98853.50;5000829;28;20202;-78
2023/12/21 11:41:32;;;;;;;2.25;1.55;;;;;;;10.03;nan;98819.41;4975821;28;20222;-79
2023/12/21 11:44:03;;;;;;;1.33;0.87;;;;;;;9.96;nan;98822.50;5009068;28;20337;-79
2023/12/21 11:46:31;;;;;;;1.35;0.95;;;;;;;9.95;nan;98809.47;5010653;28;20246;-81
2023/12/21 11:48:57;;;;;;;1.33;1.05;;;;;;;9.96;nan;98803.25;5005332;28;20205;-80
2023/12/21 11:51:23;;;;;;;0.70;0.60;;;;;;;9.99;nan;98800.44;5006896;28;20207;-80
2023/12/21 11:53:48;;;;;;;1.00;0.77;;;;;;;9.99;nan;98795.19;4988490;28;20469;-79
2023/12/21 11:56:14;;;;;;;0.63;0.60;;;;;;;10.00;nan;98791.59;4998417;28;20209;-83
2023/12/21 11:58:40;;;;;;;0.93;0.70;;;;;;;10.01;nan;98798.50;4991415;28;20249;-78
2023/12/21 12:01:07;;;;;;;1.17;0.90;;;;;;;10.05;nan;98788.66;4998753;28;21481;-84
2023/12/21 12:03:33;;;;;;;0.90;0.80;;;;;;;10.07;nan;98778.84;5002343;28;20202;-79
2023/12/21 12:06:04;;;;;;;0.60;0.60;;;;;;;10.07;nan;98756.09;4997186;28;20294;-78
2023/12/21 12:08:33;;;;;;;0.75;0.70;;;;;;;10.04;nan;98763.34;4996148;28;20285;-81
2023/12/21 12:10:59;;;;;;;0.70;0.60;;;;;;;10.08;nan;98757.75;4998646;28;20880;-83
2023/12/21 12:13:24;;;;;;;0.77;0.70;;;;;;;10.06;nan;98748.31;4995962;28;20203;-80
2023/12/21 12:15:52;;;;;;;1.17;0.73;;;;;;;10.02;nan;98741.63;4995452;28;20210;-82
2023/12/21 12:18:21;;;;;;;0.73;0.60;;;;;;;10.05;nan;98720.44;4992868;28;21055;-80
2023/12/21 12:20:47;;;;;;;0.70;0.70;;;;;;;10.07;nan;98723.75;4979580;28;20234;-79
2023/12/21 12:23:15;;;;;;;2.95;0.70;;;;;;;10.07;nan;98723.75;4977123;28;20305;-83
2023/12/21 12:25:42;;;;;;;0.60;0.60;;;;;;;10.08;nan;98694.78;4981465;28;20262;-83
2023/12/21 12:28:08;;;;;;;1.20;0.70;;;;;;;10.11;nan;98696.34;4997657;28;20273;-83
2023/12/21 12:30:37;;;;;;;1.00;0.70;;;;;;;10.12;nan;98679.63;4994350;28;20238;-81
2023/12/21 12:33:05;;;;;;;0.63;0.63;;;;;;;10.13;nan;98676.06;4992582;28;20214;-82
2023/12/21 12:35:37;;;;;;;0.88;0.70;;;;;;;10.15;nan;98687.25;4999596;28;20202;-77
2023/12/21 12:38:05;;;;;;;1.00;0.70;;;;;;;10.15;nan;98674.16;4994892;28;20199;-79
2023/12/21 12:40:32;;;;;;;0.80;0.75;;;;;;;10.19;nan;98662.47;4993116;28;20187;-79
2023/12/21 12:42:59;;;;;;;0.82;0.60;;;;;;;10.17;nan;98674.88;4991149;28;20294;-83
2023/12/21 12:45:25;;;;;;;0.60;0.60;;;;;;;10.16;nan;98652.22;4992871;28;20329;-81
2023/12/21 12:47:52;;;;;;;1.00;0.80;;;;;;;10.15;nan;98635.66;4993604;28;20203;-80
2023/12/21 12:50:20;;;;;;;0.70;0.68;;;;;;;10.18;nan;98624.06;4989586;28;20294;-77
2023/12/21 12:52:45;;;;;;;1.00;0.70;;;;;;;10.15;nan;98605.91;4993597;28;20230;-79
2023/12/21 12:55:11;;;;;;;1.80;0.93;;;;;;;10.18;nan;98621.44;4993615;28;20371;-84
2023/12/21 12:57:46;;;;;;;0.70;0.70;;;;;;;10.19;nan;98605.56;4993160;28;20221;-76
2023/12/21 13:00:15;;;;;;;0.75;0.60;;;;;;;10.17;nan;98625.84;4993293;28;20226;-77
2023/12/21 13:02:41;;;;;;;0.60;0.50;;;;;;;10.23;nan;98613.19;4990873;28;20202;-82
2023/12/21 13:05:07;;;;;;;0.90;0.67;;;;;;;10.22;nan;98603.66;4995660;28;20210;-81
2023/12/21 13:07:32;;;;;;;1.33;0.60;;;;;;;10.19;nan;98589.81;4995853;28;20541;-78
2023/12/21 13:09:58;;;;;;;0.60;0.57;;;;;;;10.23;nan;98586.97;4992302;28;20557;-80
2023/12/21 13:12:23;;;;;;;0.60;0.60;;;;;;;10.25;nan;98601.63;4995489;28;20210;-80
2023/12/21 13:14:49;;;;;;;0.77;0.60;;;;;;;10.29;nan;98592.59;4989271;28;20210;-79
2023/12/21 13:17:16;;;;;;;1.90;0.90;;;;;;;10.27;nan;98572.66;4990861;28;20211;-82
2023/12/21 13:19:45;;;;;;;1.48;0.95;;;;;;;10.27;nan;98585.78;4991680;28;20266;-79
2023/12/21 13:22:13;;;;;;;2.03;0.70;;;;;;;10.25;nan;98569.31;4993079;28;20199;-77
2023/12/21 13:24:39;;;;;;;0.77;0.60;;;;;;;10.30;nan;98570.66;4993555;28;20211;-81
2023/12/21 13:27:05;;;;;;;1.23;0.77;;;;;;;10.28;nan;98582.22;4990401;28;20197;-78
2023/12/21 13:29:30;;;;;;;0.90;0.70;;;;;;;10.30;nan;98575.06;4992806;28;20857;-81
2023/12/21 13:31:56;;;;;;;0.70;0.60;;;;;;;10.31;nan;98558.34;4994150;28;20203;-82
2023/12/21 13:34:21;;;;;;;0.70;0.70;;;;;;;10.27;nan;98546.41;4993605;28;20212;-79
2023/12/21 13:36:47;;;;;;;0.83;0.53;;;;;;;10.26;nan;98540.34;4997856;28;20206;-81
2023/12/21 13:39:12;;;;;;;0.70;0.60;;;;;;;10.27;nan;98576.13;5000728;28;20683;-81
2023/12/21 13:41:37;;;;;;;0.97;0.60;;;;;;;10.33;nan;98583.53;4996561;28;20218;-85
2023/12/21 13:44:04;;;;;;;2.50;0.70;;;;;;;10.33;nan;98574.81;4995666;28;20229;-81
2023/12/21 13:46:29;;;;;;;0.80;0.60;;;;;;;10.34;nan;98563.34;4998220;28;20268;-80
2023/12/21 13:48:55;;;;;;;0.70;0.60;;;;;;;10.35;nan;98560.63;4994764;28;20582;-82
2023/12/21 13:51:21;;;;;;;0.60;0.50;;;;;;;10.40;nan;98555.84;4993237;28;20237;-81
2023/12/21 13:53:46;;;;;;;4.20;3.93;;;;;;;10.40;nan;98547.97;4995330;28;20289;-77
2023/12/21 13:56:12;;;;;;;1.10;0.90;;;;;;;10.38;nan;98528.88;4998929;28;20221;-78
2023/12/21 13:58:39;;;;;;;4.07;3.83;;;;;;;10.37;nan;98521.97;4996691;28;20199;-78
2023/12/21 14:01:06;;;;;;;1.50;1.40;;;;;;;10.37;nan;98526.38;4996519;28;20214;-77
2023/12/21 14:03:31;;;;;;;1.98;1.42;;;;;;;10.31;nan;98518.97;4997312;28;20211;-76
2023/12/21 14:05:57;;;;;;;3.87;3.37;;;;;;;10.26;nan;98513.22;5000731;28;20257;-77
2023/12/21 14:08:22;;;;;;;4.17;2.30;;;;;;;10.26;nan;98508.84;4998225;28;20249;-78
2023/12/21 14:10:48;;;;;;;1.90;1.03;;;;;;;10.24;nan;98502.88;4999021;28;20249;-78
2023/12/21 14:13:13;;;;;;;1.10;1.00;;;;;;;10.22;nan;98510.03;5001434;28;20190;-76
2023/12/21 14:15:39;;;;;;;2.53;2.00;;;;;;;10.24;nan;98497.63;5001439;28;20215;-79